TALO2: Illinois River, Tahlequah, OK

Data processed at Sat Jan 12 2019 23:32


All information presented herein is the property of the government of the United States of America and may be revised or deleted at any time without prior notice.
Dissemination of this information without the expressed written consent of the Public Affairs Office, Tulsa District U.S. Army Corps of Engineers is strictly prohibited.
These data are gathered electronically and, as presented, have not undergone any form of quality control. These data are not guaranteed to be valid or correct.
Go to home page.
Go to station list.
Go to home page.

Upstream stations:

Downstream station:
Previous Day
Next Day
Current Day
    
SHEF ID:       TALO2     Illinois River near Tahlequah, O
STATION TYPE:  

               PRECIP PRECIP(A)     STAGE  STAGE(2)  RIV-FLOW  BAT-LOAD
                   in        in        ft        ft       cfs      volt
              Ccp-Rev   Ccp-Rev   Ccp-Rev   Ccp-Rev   Ccp-Rev   Ccp-Rev
(US/Central)
01/12 00:00      0.12      ----      7.93      7.28      2845     12.25
01/12 01:00      0.09      ----      7.95      7.28      2884     12.25
01/12 02:00      0.07      ----      6.99      7.30      1256     12.25
01/12 03:00      0.09      ----      7.95      7.31      2884     12.25
01/12 04:00      0.02      ----      7.94      7.32      2865     12.25
01/12 05:00      0.01      ----      7.65      7.33      2329     12.25
01/12 06:00      0.00      ----      7.87      7.35      2731     12.25
01/12 07:00      0.00      ----      7.85      7.37      2693     12.17
01/12 08:00      0.00      ----      7.84      7.38      2674     12.17
01/12 09:00      0.00      ----      7.86      7.41      2712     12.25
01/12 10:00      0.00      ----      7.84      7.43      2674     12.25
01/12 11:00      0.02      ----      7.89      7.44      2769     12.17
01/12 12:00      0.01      ----      7.86      7.47      2712     12.25
01/12 13:00      0.00      ----      7.93      7.49      2845     12.25
01/12 14:00      0.00      ----      7.29      7.51      1727     12.25
01/12 15:00      0.00      ----      7.11      7.52      1442     12.25
01/12 16:00      0.00      ----      7.30      7.55      1743     12.25
01/12 17:00      0.00      ----      7.13      7.59      1474     12.25
01/12 18:00      0.00      ----      7.14      7.62      1490     12.17
01/12 19:00      0.00      ----      7.23      7.65      1632     12.17
01/12 20:00      0.00      ----      7.20      7.69      1585     12.17
01/12 21:00      0.00      ----      7.28      7.77      1711     12.17
01/12 22:00      0.00      ----      7.32      7.86      1775     12.17
01/12 23:00      ----      ----      ----      ----      ----      ----